sensor_id;sensor_type;location;lat;lon;timestamp;pressure;altitude;pressure_sealevel;temperature;humidity
20013;BME280;10167;42.852;23.042;2023-05-03T00:02:07;95209.25;;;12.99;53.32
20013;BME280;10167;42.852;23.042;2023-05-03T00:04:37;95205.50;;;12.95;53.45
20013;BME280;10167;42.852;23.042;2023-05-03T00:07:08;95211.63;;;12.95;53.44
20013;BME280;10167;42.852;23.042;2023-05-03T00:09:38;95215.22;;;12.89;53.90
20013;BME280;10167;42.852;23.042;2023-05-03T00:12:07;95209.25;;;12.99;53.61
20013;BME280;10167;42.852;23.042;2023-05-03T00:14:37;95205.50;;;12.95;53.76
20013;BME280;10167;42.852;23.042;2023-05-03T00:17:06;95219.25;;;12.92;54.32
20013;BME280;10167;42.852;23.042;2023-05-03T00:19:35;95209.25;;;12.99;54.47
20013;BME280;10167;42.852;23.042;2023-05-03T00:22:06;95224.81;;;12.90;54.34
20013;BME280;10167;42.852;23.042;2023-05-03T00:24:35;95223.94;;;12.85;54.02
20013;BME280;10167;42.852;23.042;2023-05-03T00:27:06;95223.53;;;12.76;54.84
20013;BME280;10167;42.852;23.042;2023-05-03T00:29:35;95217.41;;;12.76;54.79
20013;BME280;10167;42.852;23.042;2023-05-03T00:32:05;95211.78;;;12.72;55.43
20013;BME280;10167;42.852;23.042;2023-05-03T00:34:34;95207.66;;;12.64;55.47
20013;BME280;10167;42.852;23.042;2023-05-03T00:37:03;95204.94;;;12.59;54.87
20013;BME280;10167;42.852;23.042;2023-05-03T00:39:33;95203.09;;;12.60;55.66
20013;BME280;10167;42.852;23.042;2023-05-03T00:42:02;95210.16;;;12.54;55.66
20013;BME280;10167;42.852;23.042;2023-05-03T00:44:33;95209.03;;;12.50;55.38
20013;BME280;10167;42.852;23.042;2023-05-03T00:47:02;95212.50;;;12.51;55.67
20013;BME280;10167;42.852;23.042;2023-05-03T00:49:32;95213.22;;;12.46;56.02
20013;BME280;10167;42.852;23.042;2023-05-03T00:52:01;95208.00;;;12.51;55.60
20013;BME280;10167;42.852;23.042;2023-05-03T00:54:31;95205.97;;;12.42;55.57
20013;BME280;10167;42.852;23.042;2023-05-03T00:57:03;95197.84;;;12.48;55.80
20013;BME280;10167;42.852;23.042;2023-05-03T00:59:35;95198.25;;;12.40;56.17
20013;BME280;10167;42.852;23.042;2023-05-03T01:02:05;95203.72;;;12.50;56.05
20013;BME280;10167;42.852;23.042;2023-05-03T01:04:35;95206.28;;;12.45;56.08
20013;BME280;10167;42.852;23.042;2023-05-03T01:07:10;95192.84;;;12.35;55.47
20013;BME280;10167;42.852;23.042;2023-05-03T01:09:52;95202.91;;;12.33;56.26
20013;BME280;10167;42.852;23.042;2023-05-03T01:12:31;95193.47;;;12.42;56.44
20013;BME280;10167;42.852;23.042;2023-05-03T01:15:13;95187.53;;;12.35;56.10
20013;BME280;10167;42.852;23.042;2023-05-03T01:17:49;95185.59;;;12.30;56.34
20013;BME280;10167;42.852;23.042;2023-05-03T01:20:22;95193.72;;;12.24;56.90
20013;BME280;10167;42.852;23.042;2023-05-03T01:23:00;95189.22;;;12.24;57.08
20013;BME280;10167;42.852;23.042;2023-05-03T01:25:34;95187.38;;;12.25;57.45
20013;BME280;10167;42.852;23.042;2023-05-03T01:28:03;95168.31;;;12.28;56.57
20013;BME280;10167;42.852;23.042;2023-05-03T01:30:33;95170.72;;;12.29;57.14
20013;BME280;10167;42.852;23.042;2023-05-03T01:33:09;95176.75;;;12.25;57.25
20013;BME280;10167;42.852;23.042;2023-05-03T01:35:46;95180.53;;;12.29;57.97
20013;BME280;10167;42.852;23.042;2023-05-03T01:38:17;95175.06;;;12.19;57.97
20013;BME280;10167;42.852;23.042;2023-05-03T01:40:50;95179.22;;;12.15;57.55
20013;BME280;10167;42.852;23.042;2023-05-03T01:43:20;95185.41;;;12.20;58.05
20013;BME280;10167;42.852;23.042;2023-05-03T01:45:53;95177.16;;;12.17;57.72
20013;BME280;10167;42.852;23.042;2023-05-03T01:48:22;95182.81;;;12.09;57.86
20013;BME280;10167;42.852;23.042;2023-05-03T01:50:51;95200.38;;;12.10;57.71
20013;BME280;10167;42.852;23.042;2023-05-03T01:53:24;95192.63;;;12.08;58.30
20013;BME280;10167;42.852;23.042;2023-05-03T01:55:55;95190.78;;;12.09;59.19
20013;BME280;10167;42.852;23.042;2023-05-03T01:58:24;95176.47;;;12.10;59.29
20013;BME280;10167;42.852;23.042;2023-05-03T02:00:53;95169.81;;;12.07;59.53
20013;BME280;10167;42.852;23.042;2023-05-03T02:03:22;95172.94;;;12.04;59.76
20013;BME280;10167;42.852;23.042;2023-05-03T02:05:51;95168.75;;;12.08;60.33
20013;BME280;10167;42.852;23.042;2023-05-03T02:08:21;95162.09;;;12.06;60.31
20013;BME280;10167;42.852;23.042;2023-05-03T02:10:50;95161.59;;;12.09;61.15
20013;BME280;10167;42.852;23.042;2023-05-03T02:13:20;95160.72;;;12.03;61.62
20013;BME280;10167;42.852;23.042;2023-05-03T02:15:52;95149.00;;;11.87;62.15
20013;BME280;10167;42.852;23.042;2023-05-03T02:18:22;95141.38;;;11.91;62.33
20013;BME280;10167;42.852;23.042;2023-05-03T02:20:52;95142.03;;;11.98;62.33
20013;BME280;10167;42.852;23.042;2023-05-03T02:23:21;95142.19;;;11.91;62.88
20013;BME280;10167;42.852;23.042;2023-05-03T02:25:53;95139.69;;;11.85;63.54
20013;BME280;10167;42.852;23.042;2023-05-03T02:28:24;95142.34;;;11.85;62.94
20013;BME280;10167;42.852;23.042;2023-05-03T02:30:53;95136.38;;;11.78;63.83
20013;BME280;10167;42.852;23.042;2023-05-03T02:33:23;95143.94;;;11.86;62.92
20013;BME280;10167;42.852;23.042;2023-05-03T02:35:52;95141.78;;;11.83;63.75
20013;BME280;10167;42.852;23.042;2023-05-03T02:38:21;95138.66;;;11.74;63.33
20013;BME280;10167;42.852;23.042;2023-05-03T02:40:50;95145.03;;;11.73;63.55
20013;BME280;10167;42.852;23.042;2023-05-03T02:43:20;95152.75;;;11.63;64.66
20013;BME280;10167;42.852;23.042;2023-05-03T02:45:50;95160.84;;;11.68;65.62
20013;BME280;10167;42.852;23.042;2023-05-03T02:48:20;95152.88;;;11.68;66.26
20013;BME280;10167;42.852;23.042;2023-05-03T02:50:49;95144.69;;;11.70;66.86
20013;BME280;10167;42.852;23.042;2023-05-03T02:53:18;95148.03;;;11.65;66.84
20013;BME280;10167;42.852;23.042;2023-05-03T02:55:48;95148.03;;;11.65;67.47
20013;BME280;10167;42.852;23.042;2023-05-03T02:58:17;95159.41;;;11.49;68.56
20013;BME280;10167;42.852;23.042;2023-05-03T03:00:47;95162.63;;;11.51;69.11
20013;BME280;10167;42.852;23.042;2023-05-03T03:03:18;95172.97;;;11.52;69.23
20013;BME280;10167;42.852;23.042;2023-05-03T03:05:49;95173.91;;;11.58;68.18
20013;BME280;10167;42.852;23.042;2023-05-03T03:08:18;95166.97;;;11.57;69.16
20013;BME280;10167;42.852;23.042;2023-05-03T03:10:48;95164.34;;;11.57;68.42
20013;BME280;10167;42.852;23.042;2023-05-03T03:13:17;95165.53;;;11.49;69.54
20013;BME280;10167;42.852;23.042;2023-05-03T03:15:47;95165.13;;;11.57;69.33
20013;BME280;10167;42.852;23.042;2023-05-03T03:18:18;95157.19;;;11.57;68.94
20013;BME280;10167;42.852;23.042;2023-05-03T03:20:47;95163.63;;;11.61;68.66
20013;BME280;10167;42.852;23.042;2023-05-03T03:23:19;95173.19;;;11.62;68.60
20013;BME280;10167;42.852;23.042;2023-05-03T03:25:48;95178.63;;;11.56;69.94
20013;BME280;10167;42.852;23.042;2023-05-03T03:28:17;95172.66;;;11.49;70.47
20013;BME280;10167;42.852;23.042;2023-05-03T03:30:47;95177.81;;;11.55;71.29
20013;BME280;10167;42.852;23.042;2023-05-03T03:33:25;95172.97;;;11.52;70.89
20013;BME280;10167;42.852;23.042;2023-05-03T03:36:01;95174.97;;;11.45;70.55
20013;BME280;10167;42.852;23.042;2023-05-03T03:38:37;95176.94;;;11.50;70.49
20013;BME280;10167;42.852;23.042;2023-05-03T03:41:10;95181.72;;;11.64;71.25
20013;BME280;10167;42.852;23.042;2023-05-03T03:43:39;95183.69;;;11.57;70.62
20013;BME280;10167;42.852;23.042;2023-05-03T03:46:15;95183.31;;;11.37;70.57
20013;BME280;10167;42.852;23.042;2023-05-03T03:48:48;95177.84;;;11.44;71.17
20013;BME280;10167;42.852;23.042;2023-05-03T03:51:18;95183.38;;;11.42;69.98
20013;BME280;10167;42.852;23.042;2023-05-03T03:53:47;95188.22;;;11.45;70.91
20013;BME280;10167;42.852;23.042;2023-05-03T03:56:17;95191.34;;;11.42;71.84
20013;BME280;10167;42.852;23.042;2023-05-03T03:58:48;95193.34;;;11.35;71.15
20013;BME280;10167;42.852;23.042;2023-05-03T04:01:17;95194.38;;;11.34;71.60
20013;BME280;10167;42.852;23.042;2023-05-03T04:03:48;95194.22;;;11.41;70.70
20013;BME280;10167;42.852;23.042;2023-05-03T04:06:18;95200.09;;;11.43;71.17
20013;BME280;10167;42.852;23.042;2023-05-03T04:08:48;95194.00;;;11.42;70.98
20013;BME280;10167;42.852;23.042;2023-05-03T04:11:18;95199.06;;;11.44;69.66
20013;BME280;10167;42.852;23.042;2023-05-03T04:13:53;95201.94;;;11.42;69.48
20013;BME280;10167;42.852;23.042;2023-05-03T04:16:23;95212.22;;;11.50;69.79
20013;BME280;10167;42.852;23.042;2023-05-03T04:18:55;95213.63;;;11.29;71.20
20013;BME280;10167;42.852;23.042;2023-05-03T04:21:24;95215.22;;;11.31;71.45
20013;BME280;10167;42.852;23.042;2023-05-03T04:23:55;95210.72;;;11.31;71.29
20013;BME280;10167;42.852;23.042;2023-05-03T04:26:25;95210.97;;;11.29;71.35
20013;BME280;10167;42.852;23.042;2023-05-03T04:29:15;95220.50;;;11.42;70.73
20013;BME280;10167;42.852;23.042;2023-05-03T04:31:47;95215.81;;;11.33;71.18
20013;BME280;10167;42.852;23.042;2023-05-03T04:34:18;95223.16;;;11.42;71.63
20013;BME280;10167;42.852;23.042;2023-05-03T04:36:51;95230.31;;;11.42;71.28
20013;BME280;10167;42.852;23.042;2023-05-03T04:39:21;95227.00;;;11.35;72.40
20013;BME280;10167;42.852;23.042;2023-05-03T04:41:51;95245.09;;;11.38;73.48
20013;BME280;10167;42.852;23.042;2023-05-03T04:44:21;95240.03;;;11.36;72.45
20013;BME280;10167;42.852;23.042;2023-05-03T04:46:50;95245.78;;;11.33;73.47
20013;BME280;10167;42.852;23.042;2023-05-03T04:49:21;95254.91;;;11.25;74.55
20013;BME280;10167;42.852;23.042;2023-05-03T04:51:51;95249.91;;;11.29;75.34
20013;BME280;10167;42.852;23.042;2023-05-03T04:54:24;95242.91;;;11.35;75.02
20013;BME280;10167;42.852;23.042;2023-05-03T04:56:54;95251.28;;;11.43;75.55
20013;BME280;10167;42.852;23.042;2023-05-03T04:59:23;95257.31;;;11.39;74.80
20013;BME280;10167;42.852;23.042;2023-05-03T05:01:52;95254.19;;;11.42;75.85
20013;BME280;10167;42.852;23.042;2023-05-03T05:04:23;95264.44;;;11.50;74.83
20013;BME280;10167;42.852;23.042;2023-05-03T05:06:53;95262.84;;;11.49;76.13
20013;BME280;10167;42.852;23.042;2023-05-03T05:09:28;95267.31;;;11.48;75.68
20013;BME280;10167;42.852;23.042;2023-05-03T05:11:59;95281.59;;;11.59;76.49
20013;BME280;10167;42.852;23.042;2023-05-03T05:14:35;95275.50;;;11.58;75.51
20013;BME280;10167;42.852;23.042;2023-05-03T05:17:07;95284.50;;;11.57;75.74
20013;BME280;10167;42.852;23.042;2023-05-03T05:19:38;95287.16;;;11.57;77.24
20013;BME280;10167;42.852;23.042;2023-05-03T05:22:08;95285.19;;;11.53;77.57
20013;BME280;10167;42.852;23.042;2023-05-03T05:24:49;95283.69;;;11.34;78.96
20013;BME280;10167;42.852;23.042;2023-05-03T05:27:19;95291.31;;;11.42;80.18
20013;BME280;10167;42.852;23.042;2023-05-03T05:29:52;95291.31;;;11.42;81.98
20013;BME280;10167;42.852;23.042;2023-05-03T05:32:21;95288.19;;;11.45;83.56
20013;BME280;10167;42.852;23.042;2023-05-03T05:34:53;95299.38;;;11.47;83.76
20013;BME280;10167;42.852;23.042;2023-05-03T05:37:26;95290.63;;;11.46;86.02
20013;BME280;10167;42.852;23.042;2023-05-03T05:39:59;95287.16;;;11.46;86.06
20013;BME280;10167;42.852;23.042;2023-05-03T05:42:34;95293.03;;;11.48;88.50
20013;BME280;10167;42.852;23.042;2023-05-03T05:45:05;95293.25;;;11.58;88.97
20013;BME280;10167;42.852;23.042;2023-05-03T05:47:37;95294.41;;;11.62;90.81
20013;BME280;10167;42.852;23.042;2023-05-03T05:50:15;95298.66;;;11.51;91.71
20013;BME280;10167;42.852;23.042;2023-05-03T05:52:52;95296.81;;;11.52;94.37
20013;BME280;10167;42.852;23.042;2023-05-03T05:55:24;95296.16;;;11.45;97.14
20013;BME280;10167;42.852;23.042;2023-05-03T05:57:55;95295.47;;;11.49;100.00
20013;BME280;10167;42.852;23.042;2023-05-03T06:00:33;95296.38;;;11.55;100.00
20013;BME280;10167;42.852;23.042;2023-05-03T06:03:03;95297.88;;;11.51;100.00
20013;BME280;10167;42.852;23.042;2023-05-03T06:05:35;95302.03;;;11.47;100.00
20013;BME280;10167;42.852;23.042;2023-05-03T06:08:05;95292.34;;;11.41;100.00
20013;BME280;10167;42.852;23.042;2023-05-03T06:10:34;95298.22;;;11.31;100.00
20013;BME280;10167;42.852;23.042;2023-05-03T06:13:03;95292.59;;;11.16;100.00
20013;BME280;10167;42.852;23.042;2023-05-03T06:15:33;95299.97;;;11.37;100.00
20013;BME280;10167;42.852;23.042;2023-05-03T06:18:03;95293.41;;;11.28;100.00
20013;BME280;10167;42.852;23.042;2023-05-03T06:20:32;95305.59;;;11.29;100.00
20013;BME280;10167;42.852;23.042;2023-05-03T06:23:03;95313.53;;;11.29;100.00
20013;BME280;10167;42.852;23.042;2023-05-03T06:25:33;95317.25;;;11.28;100.00
20013;BME280;10167;42.852;23.042;2023-05-03T06:28:03;95302.25;;;11.34;100.00
20013;BME280;10167;42.852;23.042;2023-05-03T06:30:34;95308.38;;;11.34;100.00
20013;BME280;10167;42.852;23.042;2023-05-03T06:33:11;95303.75;;;11.41;100.00
20013;BME280;10167;42.852;23.042;2023-05-03T06:35:42;95306.75;;;11.45;100.00
20013;BME280;10167;42.852;23.042;2023-05-03T06:38:17;95298.94;;;11.50;100.00
20013;BME280;10167;42.852;23.042;2023-05-03T06:40:47;95303.50;;;11.54;100.00
20013;BME280;10167;42.852;23.042;2023-05-03T06:43:17;95301.44;;;11.56;100.00
20013;BME280;10167;42.852;23.042;2023-05-03T06:45:59;95304.22;;;11.61;100.00
20013;BME280;10167;42.852;23.042;2023-05-03T06:48:29;95300.84;;;11.66;100.00
20013;BME280;10167;42.852;23.042;2023-05-03T06:50:58;95298.66;;;11.63;100.00
20013;BME280;10167;42.852;23.042;2023-05-03T06:53:29;95290.59;;;11.70;100.00
20013;BME280;10167;42.852;23.042;2023-05-03T06:55:58;95285.75;;;11.78;100.00
20013;BME280;10167;42.852;23.042;2023-05-03T06:58:28;95281.09;;;11.85;100.00
20013;BME280;10167;42.852;23.042;2023-05-03T07:00:57;95288.84;;;11.87;100.00
20013;BME280;10167;42.852;23.042;2023-05-03T07:03:26;95290.03;;;12.08;100.00
20013;BME280;10167;42.852;23.042;2023-05-03T07:05:55;95283.69;;;12.09;99.60
20013;BME280;10167;42.852;23.042;2023-05-03T07:08:25;95273.66;;;12.11;99.39
20013;BME280;10167;42.852;23.042;2023-05-03T07:10:56;95267.22;;;12.07;98.39
20013;BME280;10167;42.852;23.042;2023-05-03T07:13:25;95263.50;;;12.08;100.00
20013;BME280;10167;42.852;23.042;2023-05-03T07:15:54;95263.94;;;12.16;100.00
20013;BME280;10167;42.852;23.042;2023-05-03T07:18:24;95267.88;;;12.14;100.00
20013;BME280;10167;42.852;23.042;2023-05-03T07:20:53;95265.38;;;12.07;100.00
20013;BME280;10167;42.852;23.042;2023-05-03T07:23:23;95261.59;;;12.20;100.00
20013;BME280;10167;42.852;23.042;2023-05-03T07:25:52;95268.09;;;12.12;100.00
20013;BME280;10167;42.852;23.042;2023-05-03T07:28:23;95277.91;;;12.12;100.00
20013;BME280;10167;42.852;23.042;2023-05-03T07:30:53;95288.91;;;12.04;99.59
20013;BME280;10167;42.852;23.042;2023-05-03T07:33:22;95306.19;;;12.18;100.00
20013;BME280;10167;42.852;23.042;2023-05-03T07:35:51;95310.69;;;12.17;99.76
20013;BME280;10167;42.852;23.042;2023-05-03T07:38:21;95309.88;;;12.17;99.40
20013;BME280;10167;42.852;23.042;2023-05-03T07:40:52;95307.81;;;12.19;100.00
20013;BME280;10167;42.852;23.042;2023-05-03T07:43:23;95299.41;;;12.39;96.67
20013;BME280;10167;42.852;23.042;2023-05-03T07:45:52;95290.94;;;12.42;97.08
20013;BME280;10167;42.852;23.042;2023-05-03T07:48:21;95289.03;;;12.54;96.05
20013;BME280;10167;42.852;23.042;2023-05-03T07:50:50;95286.81;;;12.62;93.17
20013;BME280;10167;42.852;23.042;2023-05-03T07:53:20;95284.16;;;12.79;92.37
20013;BME280;10167;42.852;23.042;2023-05-03T07:55:52;95286.75;;;12.91;91.50
20013;BME280;10167;42.852;23.042;2023-05-03T07:58:23;95293.28;;;12.83;88.54
20013;BME280;10167;42.852;23.042;2023-05-03T08:01:06;95285.72;;;12.92;90.50
20013;BME280;10167;42.852;23.042;2023-05-03T08:03:35;95278.72;;;12.86;88.65
20013;BME280;10167;42.852;23.042;2023-05-03T08:06:05;95282.00;;;12.93;88.12
20013;BME280;10167;42.852;23.042;2023-05-03T08:08:35;95272.50;;;12.80;87.96
20013;BME280;10167;42.852;23.042;2023-05-03T08:11:04;95274.75;;;13.05;90.28
20013;BME280;10167;42.852;23.042;2023-05-03T08:13:35;95270.00;;;13.07;90.64
20013;BME280;10167;42.852;23.042;2023-05-03T08:16:05;95277.47;;;13.10;87.04
20013;BME280;10167;42.852;23.042;2023-05-03T08:18:35;95285.56;;;13.15;88.21
20013;BME280;10167;42.852;23.042;2023-05-03T08:21:04;95280.97;;;13.27;88.71
20013;BME280;10167;42.852;23.042;2023-05-03T08:23:35;95283.44;;;13.34;89.15
20013;BME280;10167;42.852;23.042;2023-05-03T08:26:04;95289.53;;;13.29;89.36
20013;BME280;10167;42.852;23.042;2023-05-03T08:28:35;95293.44;;;13.43;89.01
20013;BME280;10167;42.852;23.042;2023-05-03T08:31:05;95286.91;;;13.51;91.20
20013;BME280;10167;42.852;23.042;2023-05-03T08:33:34;95295.69;;;13.52;88.63
20013;BME280;10167;42.852;23.042;2023-05-03T08:36:04;95300.94;;;13.47;90.29
20013;BME280;10167;42.852;23.042;2023-05-03T08:38:34;95300.84;;;13.58;93.07
20013;BME280;10167;42.852;23.042;2023-05-03T08:41:12;95307.19;;;13.57;89.97
20013;BME280;10167;42.852;23.042;2023-05-03T08:43:46;95307.66;;;13.71;90.03
20013;BME280;10167;42.852;23.042;2023-05-03T08:46:18;95290.41;;;13.95;88.67
20013;BME280;10167;42.852;23.042;2023-05-03T08:48:48;95271.16;;;14.37;86.45
20013;BME280;10167;42.852;23.042;2023-05-03T08:51:18;95287.63;;;14.82;83.26
20013;BME280;10167;42.852;23.042;2023-05-03T08:53:51;95273.72;;;15.12;79.48
20013;BME280;10167;42.852;23.042;2023-05-03T08:56:24;95272.97;;;15.12;81.94
20013;BME280;10167;42.852;23.042;2023-05-03T08:58:58;95270.31;;;15.17;78.92
20013;BME280;10167;42.852;23.042;2023-05-03T09:01:35;95277.38;;;15.38;74.37
20013;BME280;10167;42.852;23.042;2023-05-03T09:04:04;95278.50;;;15.42;75.65
20013;BME280;10167;42.852;23.042;2023-05-03T09:06:34;95267.94;;;15.57;77.67
20013;BME280;10167;42.852;23.042;2023-05-03T09:09:05;95259.50;;;15.76;77.00
20013;BME280;10167;42.852;23.042;2023-05-03T09:11:37;95264.28;;;15.74;77.69
20013;BME280;10167;42.852;23.042;2023-05-03T09:14:10;95267.28;;;15.87;75.60
20013;BME280;10167;42.852;23.042;2023-05-03T09:16:43;95267.28;;;15.40;76.39
20013;BME280;10167;42.852;23.042;2023-05-03T09:19:16;95266.34;;;15.56;79.96
20013;BME280;10167;42.852;23.042;2023-05-03T09:21:46;95271.84;;;15.50;78.57
20013;BME280;10167;42.852;23.042;2023-05-03T09:24:16;95268.38;;;15.49;80.78
20013;BME280;10167;42.852;23.042;2023-05-03T09:26:48;95262.25;;;15.49;78.81
20013;BME280;10167;42.852;23.042;2023-05-03T09:29:28;95256.84;;;15.81;79.76
20013;BME280;10167;42.852;23.042;2023-05-03T09:31:59;95246.75;;;15.93;77.95
20013;BME280;10167;42.852;23.042;2023-05-03T09:34:29;95248.97;;;16.16;75.88
20013;BME280;10167;42.852;23.042;2023-05-03T09:36:58;95241.28;;;16.50;75.63
20013;BME280;10167;42.852;23.042;2023-05-03T09:39:28;95237.88;;;16.75;74.37
20013;BME280;10167;42.852;23.042;2023-05-03T09:42:09;95231.19;;;17.18;70.54
20013;BME280;10167;42.852;23.042;2023-05-03T09:44:44;95234.38;;;17.30;67.42
20013;BME280;10167;42.852;23.042;2023-05-03T09:47:16;95234.66;;;17.24;70.58
20013;BME280;10167;42.852;23.042;2023-05-03T09:49:46;95226.06;;;17.47;67.42
20013;BME280;10167;42.852;23.042;2023-05-03T09:52:16;95220.19;;;17.30;68.83
20013;BME280;10167;42.852;23.042;2023-05-03T09:54:45;95223.13;;;17.28;65.07
20013;BME280;10167;42.852;23.042;2023-05-03T09:57:15;95222.88;;;17.35;66.37
20013;BME280;10167;42.852;23.042;2023-05-03T09:59:46;95219.63;;;17.43;66.47
20013;BME280;10167;42.852;23.042;2023-05-03T10:02:17;95214.66;;;18.01;63.93
20013;BME280;10167;42.852;23.042;2023-05-03T10:04:48;95219.41;;;18.14;62.97
20013;BME280;10167;42.852;23.042;2023-05-03T10:07:19;95207.16;;;18.03;61.76
20013;BME280;10167;42.852;23.042;2023-05-03T10:09:51;95210.94;;;17.87;61.85
20013;BME280;10167;42.852;23.042;2023-05-03T10:12:20;95208.81;;;17.84;64.09
20013;BME280;10167;42.852;23.042;2023-05-03T10:14:52;95213.56;;;18.02;62.54
20013;BME280;10167;42.852;23.042;2023-05-03T10:17:24;95209.31;;;17.96;62.19
20013;BME280;10167;42.852;23.042;2023-05-03T10:20:18;95212.09;;;17.65;62.54
20013;BME280;10167;42.852;23.042;2023-05-03T10:23:08;95212.97;;;17.20;66.14
20013;BME280;10167;42.852;23.042;2023-05-03T10:25:39;95204.16;;;17.04;66.86
20013;BME280;10167;42.852;23.042;2023-05-03T10:28:32;95193.44;;;17.35;70.30
20013;BME280;10167;42.852;23.042;2023-05-03T10:31:03;95199.56;;;17.40;70.12
20013;BME280;10167;42.852;23.042;2023-05-03T10:33:33;95195.31;;;17.19;66.58
20013;BME280;10167;42.852;23.042;2023-05-03T10:36:06;95183.97;;;17.68;66.38
20013;BME280;10167;42.852;23.042;2023-05-03T10:38:37;95179.31;;;17.94;63.84
20013;BME280;10167;42.852;23.042;2023-05-03T10:41:06;95180.06;;;18.04;63.63
20013;BME280;10167;42.852;23.042;2023-05-03T10:43:42;95173.81;;;18.19;63.20
20013;BME280;10167;42.852;23.042;2023-05-03T10:46:32;95182.75;;;18.04;62.27
20013;BME280;10167;42.852;23.042;2023-05-03T10:49:16;95169.69;;;17.88;61.55
20013;BME280;10167;42.852;23.042;2023-05-03T10:51:46;95182.91;;;17.64;63.00
20013;BME280;10167;42.852;23.042;2023-05-03T10:54:16;95180.78;;;17.51;66.32
20013;BME280;10167;42.852;23.042;2023-05-03T10:56:51;95181.03;;;17.69;64.90
20013;BME280;10167;42.852;23.042;2023-05-03T10:59:22;95197.91;;;17.65;66.44
20013;BME280;10167;42.852;23.042;2023-05-03T11:01:53;95189.34;;;17.53;69.32
20013;BME280;10167;42.852;23.042;2023-05-03T11:04:32;95180.22;;;17.69;68.82
20013;BME280;10167;42.852;23.042;2023-05-03T11:07:04;95184.16;;;17.92;65.11
20013;BME280;10167;42.852;23.042;2023-05-03T11:09:34;95177.41;;;17.99;65.68
20013;BME280;10167;42.852;23.042;2023-05-03T11:12:05;95169.97;;;17.91;65.06
20013;BME280;10167;42.852;23.042;2023-05-03T11:14:35;95168.94;;;17.82;66.68
20013;BME280;10167;42.852;23.042;2023-05-03T11:17:08;95170.06;;;17.71;65.33
20013;BME280;10167;42.852;23.042;2023-05-03T11:19:37;95177.50;;;17.79;67.39
20013;BME280;10167;42.852;23.042;2023-05-03T11:22:06;95179.28;;;17.99;69.19
20013;BME280;10167;42.852;23.042;2023-05-03T11:24:36;95175.75;;;18.08;71.12
20013;BME280;10167;42.852;23.042;2023-05-03T11:27:05;95176.03;;;18.07;67.97
20013;BME280;10167;42.852;23.042;2023-05-03T11:29:35;95169.84;;;18.11;68.48
20013;BME280;10167;42.852;23.042;2023-05-03T11:32:09;95178.16;;;18.10;66.37
20013;BME280;10167;42.852;23.042;2023-05-03T11:34:38;95180.69;;;18.35;68.17
20013;BME280;10167;42.852;23.042;2023-05-03T11:37:07;95171.16;;;18.53;66.04
20013;BME280;10167;42.852;23.042;2023-05-03T11:39:37;95167.41;;;18.54;65.45
20013;BME280;10167;42.852;23.042;2023-05-03T11:42:07;95168.44;;;18.63;64.77
20013;BME280;10167;42.852;23.042;2023-05-03T11:44:36;95158.38;;;18.45;66.18
20013;BME280;10167;42.852;23.042;2023-05-03T11:47:06;95146.28;;;18.47;67.69
20013;BME280;10167;42.852;23.042;2023-05-03T11:49:37;95132.81;;;18.52;65.40
20013;BME280;10167;42.852;23.042;2023-05-03T11:52:07;95129.25;;;18.67;67.71
20013;BME280;10167;42.852;23.042;2023-05-03T11:54:36;95121.97;;;18.73;67.31
20013;BME280;10167;42.852;23.042;2023-05-03T11:57:11;95120.81;;;18.84;65.84
20013;BME280;10167;42.852;23.042;2023-05-03T11:59:41;95117.78;;;18.57;66.81
20013;BME280;10167;42.852;23.042;2023-05-03T12:02:12;95107.53;;;18.69;68.28
20013;BME280;10167;42.852;23.042;2023-05-03T12:04:43;95099.75;;;19.44;68.44
20013;BME280;10167;42.852;23.042;2023-05-03T12:07:30;95097.22;;;20.51;60.97
20013;BME280;10167;42.852;23.042;2023-05-03T12:10:11;95099.19;;;21.24;55.71
20013;BME280;10167;42.852;23.042;2023-05-03T12:12:53;95080.63;;;21.64;54.47
20013;BME280;10167;42.852;23.042;2023-05-03T12:15:28;95064.47;;;22.36;51.21
20013;BME280;10167;42.852;23.042;2023-05-03T12:18:01;95070.84;;;22.18;50.73
20013;BME280;10167;42.852;23.042;2023-05-03T12:20:33;95071.16;;;22.61;50.03
20013;BME280;10167;42.852;23.042;2023-05-03T12:23:07;95065.50;;;22.71;49.87
20013;BME280;10167;42.852;23.042;2023-05-03T12:25:37;95061.84;;;22.67;49.50
20013;BME280;10167;42.852;23.042;2023-05-03T12:28:11;95046.56;;;22.40;51.01
20013;BME280;10167;42.852;23.042;2023-05-03T12:30:47;95052.81;;;22.27;50.37
20013;BME280;10167;42.852;23.042;2023-05-03T12:33:19;95051.31;;;22.79;49.63
20013;BME280;10167;42.852;23.042;2023-05-03T12:35:51;95039.03;;;22.51;49.97
20013;BME280;10167;42.852;23.042;2023-05-03T12:38:21;95051.22;;;22.26;50.04
20013;BME280;10167;42.852;23.042;2023-05-03T12:40:52;95038.41;;;22.09;50.64
20013;BME280;10167;42.852;23.042;2023-05-03T12:43:21;95033.63;;;22.28;50.74
20013;BME280;10167;42.852;23.042;2023-05-03T12:45:51;95028.94;;;22.65;49.54
20013;BME280;10167;42.852;23.042;2023-05-03T12:48:40;95034.94;;;22.31;50.29
20013;BME280;10167;42.852;23.042;2023-05-03T12:51:14;95036.72;;;21.09;53.21
20013;BME280;10167;42.852;23.042;2023-05-03T12:53:48;95034.59;;;20.64;54.94
20013;BME280;10167;42.852;23.042;2023-05-03T12:56:21;95031.44;;;20.25;57.77
20013;BME280;10167;42.852;23.042;2023-05-03T12:58:52;95029.72;;;19.40;61.81
20013;BME280;10167;42.852;23.042;2023-05-03T13:01:24;95029.78;;;19.11;63.63
20013;BME280;10167;42.852;23.042;2023-05-03T13:03:56;95021.97;;;18.91;65.95
20013;BME280;10167;42.852;23.042;2023-05-03T13:06:47;95006.56;;;18.49;70.85
20013;BME280;10167;42.852;23.042;2023-05-03T13:09:25;95013.69;;;18.30;71.87
20013;BME280;10167;42.852;23.042;2023-05-03T13:12:15;95020.56;;;18.12;74.58